createdAt,value
2022-12-17T00:00:01.780Z,-5.54
2022-12-17T00:01:01.684Z,-5.57
2022-12-17T00:02:01.618Z,-5.53
2022-12-17T00:03:01.697Z,-5.58
2022-12-17T00:04:01.775Z,-5.57
2022-12-17T00:05:01.495Z,-5.49
2022-12-17T00:06:01.396Z,-5.46
2022-12-17T00:07:01.353Z,-5.46
2022-12-17T00:08:01.250Z,-5.45
2022-12-17T00:09:01.239Z,-5.45
2022-12-17T00:10:01.168Z,-5.45
2022-12-17T00:11:01.159Z,-5.46
2022-12-17T00:12:00.984Z,-5.49
2022-12-17T00:13:00.884Z,-5.45
2022-12-17T00:14:00.937Z,-5.47
2022-12-17T00:15:00.778Z,-5.46
2022-12-17T00:16:00.916Z,-5.45
2022-12-17T00:17:00.678Z,-5.43
2022-12-17T00:18:01.300Z,-5.43
2022-12-17T00:19:00.599Z,-5.51
2022-12-17T00:20:00.849Z,-5.29
2022-12-17T00:21:00.387Z,-5.39
2022-12-17T00:22:00.392Z,-5.35
2022-12-17T00:23:00.283Z,-5.25
2022-12-17T00:24:00.435Z,-5.18
2022-12-17T00:25:00.958Z,-5.35
2022-12-17T00:26:00.228Z,-5.29
2022-12-17T00:27:00.558Z,-5.29
2022-12-17T00:28:00.116Z,-5.39
2022-12-17T00:28:59.917Z,-5.33
2022-12-17T00:29:59.929Z,-5.24
2022-12-17T00:30:59.899Z,-5.25
2022-12-17T00:31:59.710Z,-5.36
2022-12-17T00:32:59.775Z,-5.25
2022-12-17T00:33:59.921Z,-5.40
2022-12-17T00:34:59.553Z,-5.31
2022-12-17T00:35:59.569Z,-5.29
2022-12-17T00:36:59.392Z,-5.28
2022-12-17T00:37:59.300Z,-5.25
2022-12-17T00:38:59.351Z,-5.28
2022-12-17T00:39:59.582Z,-5.19
2022-12-17T00:40:59.223Z,-5.24
2022-12-17T00:41:59.183Z,-5.18
2022-12-17T00:42:58.999Z,-5.25
2022-12-17T00:43:59.042Z,-5.13
2022-12-17T00:44:58.952Z,-5.18
2022-12-17T00:45:58.849Z,-5.17
2022-12-17T00:46:58.990Z,-5.19
2022-12-17T00:47:58.758Z,-5.21
2022-12-17T00:48:58.969Z,-5.22
2022-12-17T00:49:58.540Z,-5.21
2022-12-17T00:50:58.533Z,-5.31
2022-12-17T00:51:58.605Z,-5.18
2022-12-17T00:52:58.454Z,-5.17
2022-12-17T00:53:58.491Z,-5.14
2022-12-17T00:54:58.274Z,-5.13
2022-12-17T00:55:58.376Z,-5.09
2022-12-17T00:56:58.223Z,-5.09
2022-12-17T00:57:58.193Z,-5.18
2022-12-17T00:58:58.306Z,-5.10
2022-12-17T00:59:58.040Z,-5.06
2022-12-17T01:00:58.105Z,-5.05
2022-12-17T01:01:58.089Z,-5.03
2022-12-17T01:02:58.000Z,-5.08
2022-12-17T01:03:57.804Z,-5.03
2022-12-17T01:04:57.675Z,-5.08
2022-12-17T01:05:57.537Z,-5.03
2022-12-17T01:06:57.605Z,-4.98
2022-12-17T01:07:57.548Z,-5.00
2022-12-17T01:08:57.475Z,-5.00
2022-12-17T01:09:57.431Z,-5.00
2022-12-17T01:10:57.291Z,-5.10
2022-12-17T01:11:57.482Z,-5.10
2022-12-17T01:12:57.263Z,-5.06
2022-12-17T01:13:57.186Z,-5.09
2022-12-17T01:14:57.029Z,-5.03
2022-12-17T01:15:56.966Z,-5.05
2022-12-17T01:16:56.968Z,-5.06
2022-12-17T01:17:57.015Z,-5.03
2022-12-17T01:18:56.729Z,-5.09
2022-12-17T01:19:57.595Z,-5.05
2022-12-17T01:20:56.688Z,-5.06
2022-12-17T01:21:57.474Z,-5.05
2022-12-17T01:22:56.605Z,-5.03
2022-12-17T01:23:56.385Z,-5.05
2022-12-17T01:24:56.313Z,-5.06
2022-12-17T01:25:56.478Z,-5.03
2022-12-17T01:26:56.334Z,-4.99
2022-12-17T01:27:56.272Z,-5.02
2022-12-17T01:28:56.134Z,-5.05
2022-12-17T01:29:56.012Z,-4.98
2022-12-17T01:30:55.961Z,-5.06
2022-12-17T01:31:55.975Z,-5.14
2022-12-17T01:32:55.883Z,-5.21
2022-12-17T01:33:55.853Z,-5.28
2022-12-17T01:34:55.717Z,-5.25
2022-12-17T01:35:55.672Z,-5.24
2022-12-17T01:36:55.556Z,-5.36
2022-12-17T01:37:55.547Z,-5.33
2022-12-17T01:38:55.509Z,-5.45
2022-12-17T01:39:55.416Z,-5.53
2022-12-17T01:40:55.318Z,-5.56
2022-12-17T01:41:55.277Z,-5.42
2022-12-17T01:42:55.193Z,-5.43
2022-12-17T01:43:55.163Z,-5.33
2022-12-17T01:44:55.100Z,-5.38
2022-12-17T01:45:55.060Z,-5.38
2022-12-17T01:46:54.960Z,-5.40
2022-12-17T01:47:56.467Z,-5.42
2022-12-17T01:48:54.836Z,-5.43
2022-12-17T01:49:54.762Z,-5.42
2022-12-17T01:50:54.710Z,-5.40
2022-12-17T01:51:54.641Z,-5.43
2022-12-17T01:52:54.581Z,-5.45
2022-12-17T01:53:54.506Z,-5.43
2022-12-17T01:54:54.458Z,-5.42
2022-12-17T01:55:54.376Z,-5.49
2022-12-17T01:56:54.297Z,-5.51
2022-12-17T01:57:54.258Z,-5.54
2022-12-17T01:58:54.219Z,-5.45
2022-12-17T01:59:54.169Z,-5.43
2022-12-17T02:00:54.113Z,-5.53
2022-12-17T02:01:54.234Z,-5.46
2022-12-17T02:02:54.032Z,-5.58
2022-12-17T02:03:53.875Z,-5.61
2022-12-17T02:04:53.882Z,-5.57
2022-12-17T02:05:53.761Z,-5.57
2022-12-17T02:06:53.748Z,-5.58
2022-12-17T02:07:53.686Z,-5.54
2022-12-17T02:08:53.551Z,-5.60
2022-12-17T02:09:53.509Z,-5.61
2022-12-17T02:10:53.430Z,-5.61
2022-12-17T02:11:53.432Z,-5.68
2022-12-17T02:12:53.335Z,-5.63
2022-12-17T02:13:53.256Z,-5.72
2022-12-17T02:14:53.216Z,-5.67
2022-12-17T02:15:53.120Z,-5.58
2022-12-17T02:16:53.176Z,-5.60
2022-12-17T02:17:53.019Z,-5.64
2022-12-17T02:18:52.957Z,-5.63
2022-12-17T02:19:52.877Z,-5.58
2022-12-17T02:20:52.821Z,-5.68
2022-12-17T02:21:52.796Z,-5.60
2022-12-17T02:22:52.669Z,-5.66
2022-12-17T02:23:52.630Z,-5.63
2022-12-17T02:24:52.577Z,-5.58
2022-12-17T02:25:52.510Z,-5.57
2022-12-17T02:26:52.472Z,-5.61
2022-12-17T02:27:52.360Z,-5.63
2022-12-17T02:28:52.316Z,-5.57
2022-12-17T02:29:52.221Z,-5.64
2022-12-17T02:30:52.178Z,-5.67
2022-12-17T02:31:52.222Z,-5.63
2022-12-17T02:32:52.081Z,-5.67
2022-12-17T02:33:52.000Z,-5.63
2022-12-17T02:34:51.946Z,-5.68
2022-12-17T02:35:51.876Z,-5.67
2022-12-17T02:36:51.801Z,-5.63
2022-12-17T02:37:51.811Z,-5.61
2022-12-17T02:38:51.694Z,-5.63
2022-12-17T02:39:51.608Z,-5.74
2022-12-17T02:40:51.577Z,-5.72
2022-12-17T02:41:51.653Z,-5.66
2022-12-17T02:42:51.486Z,-5.68
2022-12-17T02:43:51.358Z,-5.74
2022-12-17T02:44:51.315Z,-5.71
2022-12-17T02:45:51.282Z,-5.68
2022-12-17T02:46:51.209Z,-5.82
2022-12-17T02:47:51.135Z,-5.75
2022-12-17T02:48:51.051Z,-5.72
2022-12-17T02:49:51.014Z,-5.75
2022-12-17T02:50:50.949Z,-5.78
2022-12-17T02:51:50.876Z,-5.81
2022-12-17T02:52:50.837Z,-5.90
2022-12-17T02:53:50.742Z,-5.85
2022-12-17T02:54:50.687Z,-5.86
2022-12-17T02:55:50.627Z,-5.86
2022-12-17T02:56:50.613Z,-5.85
2022-12-17T02:57:53.766Z,-5.92
2022-12-17T02:58:50.466Z,-5.92
2022-12-17T02:59:50.375Z,-5.90
2022-12-17T03:00:50.351Z,-6.00
2022-12-17T03:01:50.411Z,-5.84
2022-12-17T03:02:50.346Z,-5.93
2022-12-17T03:03:50.692Z,-5.97
2022-12-17T03:04:50.030Z,-5.96
2022-12-17T03:05:49.970Z,-6.03
2022-12-17T03:06:49.936Z,-5.97
2022-12-17T03:07:49.868Z,-5.92
2022-12-17T03:08:49.845Z,-5.99
2022-12-17T03:09:49.731Z,-6.05
2022-12-17T03:10:49.705Z,-6.15
2022-12-17T03:11:49.589Z,-6.13
2022-12-17T03:12:49.579Z,-6.23
2022-12-17T03:13:49.531Z,-6.23
2022-12-17T03:14:49.441Z,-6.24
2022-12-17T03:15:49.423Z,-6.29
2022-12-17T03:16:49.332Z,-6.28
2022-12-17T03:17:49.233Z,-6.26
2022-12-17T03:18:49.185Z,-6.31
2022-12-17T03:19:49.135Z,-6.26
2022-12-17T03:20:49.035Z,-6.24
2022-12-17T03:21:49.007Z,-6.24
2022-12-17T03:22:48.949Z,-6.20
2022-12-17T03:23:48.884Z,-6.26
2022-12-17T03:24:48.815Z,-6.29
2022-12-17T03:25:48.747Z,-6.32
2022-12-17T03:26:48.774Z,-6.29
2022-12-17T03:27:48.596Z,-6.31
2022-12-17T03:28:48.544Z,-6.28
2022-12-17T03:29:48.485Z,-6.35
2022-12-17T03:30:49.243Z,-6.31
2022-12-17T03:31:48.344Z,-6.39
2022-12-17T03:32:48.352Z,-6.36
2022-12-17T03:33:48.217Z,-6.42
2022-12-17T03:34:48.182Z,-6.47
2022-12-17T03:35:48.092Z,-6.47
2022-12-17T03:36:48.081Z,-6.49
2022-12-17T03:37:47.950Z,-6.38
2022-12-17T03:38:47.916Z,-6.54
2022-12-17T03:39:47.850Z,-6.50
2022-12-17T03:40:47.836Z,-6.56
2022-12-17T03:41:47.736Z,-6.52
2022-12-17T03:42:47.650Z,-6.58
2022-12-17T03:43:47.588Z,-6.53
2022-12-17T03:44:47.553Z,-6.65
2022-12-17T03:45:47.554Z,-6.66
2022-12-17T03:46:47.416Z,-6.69
2022-12-17T03:47:47.335Z,-6.60
2022-12-17T03:48:47.275Z,-6.58
2022-12-17T03:49:47.226Z,-6.68
2022-12-17T03:50:47.202Z,-6.71
2022-12-17T03:51:47.089Z,-6.69
2022-12-17T03:52:47.033Z,-6.68
2022-12-17T03:53:47.000Z,-6.75
2022-12-17T03:54:46.907Z,-6.71
2022-12-17T03:55:46.834Z,-6.74
2022-12-17T03:56:46.817Z,-6.71
2022-12-17T03:57:46.690Z,-6.78
2022-12-17T03:58:46.618Z,-6.84
2022-12-17T03:59:46.617Z,-6.97
2022-12-17T04:00:46.540Z,-6.90
2022-12-17T04:01:46.597Z,-7.04
2022-12-17T04:02:46.572Z,-6.90
2022-12-17T04:03:46.388Z,-7.03
2022-12-17T04:04:46.264Z,-7.00
2022-12-17T04:05:46.251Z,-7.00
2022-12-17T04:06:46.192Z,-6.97
2022-12-17T04:07:46.103Z,-6.99
2022-12-17T04:08:46.028Z,-6.97
2022-12-17T04:09:45.961Z,-6.99
2022-12-17T04:10:45.882Z,-6.94
2022-12-17T04:11:45.866Z,-7.03
2022-12-17T04:12:45.778Z,-6.99
2022-12-17T04:13:46.096Z,-6.96
2022-12-17T04:14:45.638Z,-6.99
2022-12-17T04:15:45.675Z,-6.99
2022-12-17T04:16:45.512Z,-6.99
2022-12-17T04:17:45.458Z,-7.03
2022-12-17T04:18:45.387Z,-7.00
2022-12-17T04:19:45.371Z,-6.97
2022-12-17T04:20:45.279Z,-7.03
2022-12-17T04:21:45.258Z,-7.11
2022-12-17T04:22:45.114Z,-7.14
2022-12-17T04:23:45.049Z,-7.22
2022-12-17T04:24:45.027Z,-7.22
2022-12-17T04:25:44.972Z,-7.15
2022-12-17T04:26:44.883Z,-7.26
2022-12-17T04:27:44.844Z,-7.28
2022-12-17T04:28:44.803Z,-7.21
2022-12-17T04:29:44.693Z,-7.28
2022-12-17T04:30:44.655Z,-7.28
2022-12-17T04:31:44.557Z,-7.35
2022-12-17T04:32:44.521Z,-7.32
2022-12-17T04:33:44.475Z,-7.32
2022-12-17T04:34:44.362Z,-7.47
2022-12-17T04:35:44.299Z,-7.43
2022-12-17T04:36:44.253Z,-7.40
2022-12-17T04:37:44.172Z,-7.40
2022-12-17T04:38:44.140Z,-7.50
2022-12-17T04:39:44.056Z,-7.54
2022-12-17T04:40:44.008Z,-7.56
2022-12-17T04:41:43.962Z,-7.71
2022-12-17T04:42:43.889Z,-7.67
2022-12-17T04:43:43.812Z,-7.78
2022-12-17T04:44:43.741Z,-7.75
2022-12-17T04:45:43.716Z,-7.74
2022-12-17T04:46:43.675Z,-7.83
2022-12-17T04:47:43.600Z,-7.85
2022-12-17T04:48:43.472Z,-7.88
2022-12-17T04:49:43.413Z,-7.89
2022-12-17T04:50:43.351Z,-7.83
2022-12-17T04:51:43.332Z,-7.96
2022-12-17T04:52:43.223Z,-8.07
2022-12-17T04:53:43.230Z,-8.05
2022-12-17T04:54:43.111Z,-8.13
2022-12-17T04:55:43.049Z,-8.11
2022-12-17T04:56:42.980Z,-8.10
2022-12-17T04:57:42.969Z,-8.11
2022-12-17T04:58:42.874Z,-8.28
2022-12-17T04:59:42.827Z,-8.22
2022-12-17T05:00:42.748Z,-8.26
2022-12-17T05:01:42.744Z,-8.42
2022-12-17T05:02:43.016Z,-8.42
2022-12-17T05:03:42.667Z,-8.42
2022-12-17T05:04:42.469Z,-8.49
2022-12-17T05:05:42.405Z,-8.60
2022-12-17T05:06:42.356Z,-8.55
2022-12-17T05:07:42.286Z,-8.60
2022-12-17T05:08:42.225Z,-8.50
2022-12-17T05:09:42.184Z,-8.60
2022-12-17T05:10:42.082Z,-8.60
2022-12-17T05:11:42.050Z,-8.70
2022-12-17T05:12:41.942Z,-8.65
2022-12-17T05:13:41.902Z,-8.81
2022-12-17T05:14:41.827Z,-8.73
2022-12-17T05:15:41.845Z,-8.79
2022-12-17T05:16:41.719Z,-8.82
2022-12-17T05:17:41.634Z,-8.85
2022-12-17T05:18:41.583Z,-8.75
2022-12-17T05:19:41.545Z,-8.79
2022-12-17T05:20:41.492Z,-8.76
2022-12-17T05:21:41.403Z,-8.88
2022-12-17T05:22:41.345Z,-8.79
2022-12-17T05:23:41.262Z,-8.90
2022-12-17T05:24:41.233Z,-8.99
2022-12-17T05:25:41.147Z,-9.00
2022-12-17T05:26:41.070Z,-9.02
2022-12-17T05:27:40.993Z,-8.97
2022-12-17T05:28:40.948Z,-9.00
2022-12-17T05:29:40.900Z,-9.02
2022-12-17T05:30:40.839Z,-9.06
2022-12-17T05:31:40.844Z,-9.02
2022-12-17T05:32:40.700Z,-9.15
2022-12-17T05:33:40.613Z,-9.10
2022-12-17T05:34:40.556Z,-9.22
2022-12-17T05:35:40.469Z,-9.18
2022-12-17T05:36:40.435Z,-9.31
2022-12-17T05:37:40.345Z,-9.29
2022-12-17T05:38:40.323Z,-9.38
2022-12-17T05:39:40.252Z,-9.33
2022-12-17T05:40:40.171Z,-9.32
2022-12-17T05:41:40.111Z,-9.35
2022-12-17T05:42:40.081Z,-9.33
2022-12-17T05:43:40.112Z,-9.50
2022-12-17T05:44:39.911Z,-9.46
2022-12-17T05:45:39.836Z,-9.46
2022-12-17T05:46:39.796Z,-9.50
2022-12-17T05:47:39.698Z,-9.46
2022-12-17T05:48:39.665Z,-9.44
2022-12-17T05:49:39.625Z,-9.51
2022-12-17T05:50:39.521Z,-9.46
2022-12-17T05:51:39.466Z,-9.43
2022-12-17T05:52:39.399Z,-9.33
2022-12-17T05:53:39.582Z,-9.33
2022-12-17T05:54:39.286Z,-9.38
2022-12-17T05:55:39.229Z,-9.31
2022-12-17T05:56:39.155Z,-9.36
2022-12-17T05:57:39.081Z,-9.35
2022-12-17T05:58:39.035Z,-9.36
2022-12-17T05:59:38.960Z,-9.29
2022-12-17T06:00:38.893Z,-9.29
2022-12-17T06:01:38.852Z,-9.33
2022-12-17T06:02:38.854Z,-9.20
2022-12-17T06:03:39.076Z,-9.22
2022-12-17T06:04:38.638Z,-9.24
2022-12-17T06:05:38.536Z,-9.22
2022-12-17T06:06:38.483Z,-9.22
2022-12-17T06:07:38.435Z,-9.24
2022-12-17T06:08:38.401Z,-9.06
2022-12-17T06:09:38.312Z,-9.14
2022-12-17T06:10:38.211Z,-9.06
2022-12-17T06:11:38.140Z,-9.06
2022-12-17T06:12:38.132Z,-9.04
2022-12-17T06:13:38.249Z,-9.07
2022-12-17T06:14:37.993Z,-9.06
2022-12-17T06:15:37.892Z,-9.02
2022-12-17T06:16:37.905Z,-9.04
2022-12-17T06:17:37.792Z,-9.04
2022-12-17T06:18:37.748Z,-8.99
2022-12-17T06:19:37.672Z,-8.97
2022-12-17T06:20:37.619Z,-9.04
2022-12-17T06:21:37.554Z,-9.02
2022-12-17T06:22:37.448Z,-9.00
2022-12-17T06:23:37.707Z,-9.04
2022-12-17T06:24:40.183Z,-8.99
2022-12-17T06:25:37.288Z,-9.03
2022-12-17T06:26:37.194Z,-9.04
2022-12-17T06:27:37.170Z,-9.03
2022-12-17T06:28:37.113Z,-9.03
2022-12-17T06:29:37.028Z,-8.97
2022-12-17T06:30:36.971Z,-9.07
2022-12-17T06:31:36.936Z,-9.03
2022-12-17T06:32:36.799Z,-9.02
2022-12-17T06:33:37.098Z,-9.00
2022-12-17T06:34:36.719Z,-9.03
2022-12-17T06:35:36.641Z,-8.99
2022-12-17T06:36:36.572Z,-9.06
2022-12-17T06:37:36.481Z,-9.02
2022-12-17T06:38:36.504Z,-9.04
2022-12-17T06:39:36.370Z,-9.02
2022-12-17T06:40:36.316Z,-8.99
2022-12-17T06:41:36.243Z,-9.02
2022-12-17T06:42:36.219Z,-9.07
2022-12-17T06:43:36.475Z,-8.99
2022-12-17T06:44:36.087Z,-9.00
2022-12-17T06:45:36.024Z,-8.92
2022-12-17T06:46:36.029Z,-8.97
2022-12-17T06:47:35.851Z,-8.97
2022-12-17T06:48:35.824Z,-8.99
2022-12-17T06:49:35.751Z,-9.03
2022-12-17T06:50:35.685Z,-9.00
2022-12-17T06:51:35.622Z,-9.00
2022-12-17T06:52:35.515Z,-9.06
2022-12-17T06:53:35.800Z,-9.10
2022-12-17T06:54:35.476Z,-8.97
2022-12-17T06:55:35.374Z,-8.97
2022-12-17T06:56:35.342Z,-8.90
2022-12-17T06:57:39.180Z,-8.93
2022-12-17T06:58:35.190Z,-9.03
2022-12-17T06:59:35.109Z,-9.02
2022-12-17T07:00:35.090Z,-9.00
2022-12-17T07:01:35.101Z,-8.99
2022-12-17T07:02:35.028Z,-8.92
2022-12-17T07:03:35.231Z,-8.94
2022-12-17T07:04:34.825Z,-8.99
2022-12-17T07:05:34.719Z,-9.02
2022-12-17T07:06:34.650Z,-8.93
2022-12-17T07:07:34.588Z,-8.99
2022-12-17T07:08:34.553Z,-8.99
2022-12-17T07:09:34.448Z,-9.02
2022-12-17T07:10:34.389Z,-9.00
2022-12-17T07:11:34.382Z,-8.97
2022-12-17T07:12:34.296Z,-8.96
2022-12-17T07:13:34.444Z,-8.90
2022-12-17T07:14:34.144Z,-8.93
2022-12-17T07:15:34.071Z,-8.90
2022-12-17T07:16:34.032Z,-8.92
2022-12-17T07:17:33.964Z,-8.94
2022-12-17T07:18:33.883Z,-8.94
2022-12-17T07:19:33.826Z,-8.90
2022-12-17T07:20:33.746Z,-8.78
2022-12-17T07:21:33.684Z,-8.85
2022-12-17T07:22:33.610Z,-8.85
2022-12-17T07:23:34.116Z,-8.81
2022-12-17T07:24:33.519Z,-8.75
2022-12-17T07:25:33.431Z,-8.81
2022-12-17T07:26:33.366Z,-8.68
2022-12-17T07:27:33.295Z,-8.73
2022-12-17T07:28:33.240Z,-8.60
2022-12-17T07:29:33.193Z,-8.54
2022-12-17T07:30:33.102Z,-8.54
2022-12-17T07:31:33.151Z,-8.57
2022-12-17T07:32:32.992Z,-8.40
2022-12-17T07:33:33.107Z,-8.57
2022-12-17T07:34:32.924Z,-8.58
2022-12-17T07:35:32.865Z,-8.58
2022-12-17T07:36:32.755Z,-8.60
2022-12-17T07:37:32.664Z,-8.64
2022-12-17T07:38:32.612Z,-8.65
2022-12-17T07:39:32.558Z,-8.61
2022-12-17T07:40:32.456Z,-8.61
2022-12-17T07:41:32.411Z,-8.61
2022-12-17T07:42:32.339Z,-8.61
2022-12-17T07:43:32.304Z,-8.58
2022-12-17T07:44:32.375Z,-8.57
2022-12-17T07:45:32.218Z,-8.58
2022-12-17T07:46:32.082Z,-8.58
2022-12-17T07:47:32.029Z,-8.58
2022-12-17T07:48:31.997Z,-8.58
2022-12-17T07:49:31.932Z,-8.54
2022-12-17T07:50:31.830Z,-8.52
2022-12-17T07:51:31.800Z,-8.58
2022-12-17T07:52:31.695Z,-8.57
2022-12-17T07:53:31.677Z,-8.58
2022-12-17T07:54:31.588Z,-8.57
2022-12-17T07:55:31.526Z,-8.52
2022-12-17T07:56:31.473Z,-8.50
2022-12-17T07:57:31.388Z,-8.42
2022-12-17T07:58:31.348Z,-8.29
2022-12-17T07:59:31.320Z,-8.40
2022-12-17T08:00:31.217Z,-8.31
2022-12-17T08:01:31.273Z,-8.34
2022-12-17T08:02:31.265Z,-8.19
2022-12-17T08:03:31.141Z,-8.18
2022-12-17T08:04:30.964Z,-8.23
2022-12-17T08:05:30.908Z,-8.16
2022-12-17T08:06:30.869Z,-8.22
2022-12-17T08:07:30.774Z,-8.26
2022-12-17T08:08:30.696Z,-8.28
2022-12-17T08:09:30.660Z,-8.18
2022-12-17T08:10:30.564Z,-8.15
2022-12-17T08:11:30.518Z,-8.07
2022-12-17T08:12:30.472Z,-7.78
2022-12-17T08:13:30.372Z,-7.03
2022-12-17T08:14:30.350Z,-6.00
2022-12-17T08:15:30.261Z,-4.88
2022-12-17T08:16:30.209Z,-3.95
2022-12-17T08:17:30.130Z,-3.20
2022-12-17T08:18:30.076Z,-2.69
2022-12-17T08:19:29.997Z,-2.34
2022-12-17T08:20:29.927Z,-1.90
2022-12-17T08:21:29.879Z,-1.32
2022-12-17T08:22:29.927Z,-0.89
2022-12-17T08:23:29.915Z,-0.52
2022-12-17T08:24:29.922Z,-0.35
2022-12-17T08:25:29.893Z,0.16
2022-12-17T08:26:29.575Z,0.96
2022-12-17T08:27:29.499Z,1.50
2022-12-17T08:29:29.385Z,2.50
2022-12-17T08:30:29.468Z,2.92
2022-12-17T08:31:29.254Z,3.22
2022-12-17T08:32:29.205Z,3.58
2022-12-17T08:33:29.132Z,3.48
2022-12-17T08:34:29.079Z,3.53
2022-12-17T08:35:29.052Z,3.59
2022-12-17T08:36:29.032Z,3.94
2022-12-17T08:37:28.952Z,4.19
2022-12-17T08:38:28.916Z,4.78
2022-12-17T08:39:28.840Z,5.10
2022-12-17T08:40:28.790Z,5.43
2022-12-17T08:41:28.709Z,5.18
2022-12-17T08:42:28.716Z,4.60
2022-12-17T08:43:28.627Z,4.31
2022-12-17T08:44:28.583Z,4.08
2022-12-17T08:45:28.522Z,3.84
2022-12-17T08:46:28.558Z,3.74
2022-12-17T08:47:28.418Z,3.83
2022-12-17T08:48:28.368Z,3.73
2022-12-17T08:49:28.324Z,3.95
2022-12-17T08:50:28.288Z,4.20
2022-12-17T08:51:28.225Z,4.32
2022-12-17T08:52:28.182Z,4.45
2022-12-17T08:53:33.296Z,4.38
2022-12-17T08:54:28.098Z,4.55
2022-12-17T08:55:28.007Z,4.96
2022-12-17T08:56:27.954Z,5.59
2022-12-17T08:57:31.822Z,6.11
2022-12-17T08:58:27.890Z,6.69
2022-12-17T08:59:27.823Z,7.03
2022-12-17T09:00:27.763Z,7.45
2022-12-17T09:01:27.855Z,7.73
2022-12-17T09:02:27.800Z,7.73
2022-12-17T09:03:27.726Z,7.56
2022-12-17T09:04:27.608Z,7.38
2022-12-17T09:05:27.512Z,6.93
2022-12-17T09:06:27.472Z,6.51
2022-12-17T09:07:27.436Z,6.44
2022-12-17T09:08:27.364Z,6.70
2022-12-17T09:09:27.331Z,7.25
2022-12-17T09:10:27.256Z,7.47
2022-12-17T09:11:27.225Z,7.88
2022-12-17T09:12:27.207Z,8.06
2022-12-17T09:13:27.293Z,8.49
2022-12-17T09:14:27.107Z,8.82
2022-12-17T09:15:27.072Z,8.94
2022-12-17T09:16:27.081Z,8.99
2022-12-17T09:17:26.930Z,8.71
2022-12-17T09:18:26.919Z,8.63
2022-12-17T09:19:26.855Z,8.42
2022-12-17T09:20:29.401Z,8.36
2022-12-17T09:21:26.766Z,8.49
2022-12-17T09:22:26.716Z,8.36
2022-12-17T09:23:26.685Z,8.55
2022-12-17T09:24:26.622Z,8.70
2022-12-17T09:25:26.606Z,9.25
2022-12-17T09:26:26.530Z,9.36
2022-12-17T09:27:26.488Z,9.59
2022-12-17T09:28:26.444Z,9.84
2022-12-17T09:29:26.388Z,10.02
2022-12-17T09:30:26.403Z,10.20
2022-12-17T09:31:26.356Z,10.37
2022-12-17T09:32:26.246Z,10.64
2022-12-17T09:33:27.102Z,10.89
2022-12-17T09:34:26.160Z,10.97
2022-12-17T09:35:26.130Z,10.92
2022-12-17T09:36:26.077Z,10.34
2022-12-17T09:37:26.019Z,10.13
2022-12-17T09:38:25.969Z,10.22
2022-12-17T09:39:25.941Z,10.16
2022-12-17T09:40:25.881Z,10.12
2022-12-17T09:41:25.873Z,9.79
2022-12-17T09:42:25.796Z,9.99
2022-12-17T09:43:25.737Z,10.04
2022-12-17T09:44:25.719Z,10.25
2022-12-17T09:45:25.674Z,10.53
2022-12-17T09:46:25.690Z,10.82
2022-12-17T09:47:25.563Z,11.05
2022-12-17T09:48:30.808Z,11.27
2022-12-17T09:49:25.483Z,11.55
2022-12-17T09:50:25.468Z,11.22
2022-12-17T09:51:25.386Z,11.22
2022-12-17T09:52:25.352Z,11.25
2022-12-17T09:53:25.296Z,11.23
2022-12-17T09:54:25.255Z,11.50
2022-12-17T09:55:25.258Z,11.45
2022-12-17T09:56:25.155Z,11.66
2022-12-17T09:57:25.081Z,11.80
2022-12-17T09:58:25.096Z,11.78
2022-12-17T09:59:25.069Z,11.88
2022-12-17T10:00:24.978Z,11.88
2022-12-17T10:01:25.015Z,11.86
2022-12-17T10:02:25.205Z,11.88
2022-12-17T10:03:24.903Z,12.04
2022-12-17T10:04:24.782Z,12.25
2022-12-17T10:05:24.776Z,11.95
2022-12-17T10:06:24.703Z,11.62
2022-12-17T10:07:24.644Z,11.45
2022-12-17T10:08:24.640Z,11.05
2022-12-17T10:09:24.642Z,10.75
2022-12-17T10:10:24.615Z,10.51
2022-12-17T10:11:24.481Z,10.46
2022-12-17T10:12:24.426Z,10.40
2022-12-17T10:13:24.395Z,10.26
2022-12-17T10:14:24.344Z,10.12
2022-12-17T10:15:24.322Z,10.07
2022-12-17T10:16:24.305Z,10.17
2022-12-17T10:17:24.235Z,10.28
2022-12-17T10:18:24.216Z,10.25
2022-12-17T10:19:24.150Z,10.56
2022-12-17T10:20:24.080Z,10.67
2022-12-17T10:21:24.074Z,10.33
2022-12-17T10:22:24.168Z,10.26
2022-12-17T10:23:23.998Z,10.19
2022-12-17T10:24:23.925Z,10.19
2022-12-17T10:25:23.877Z,10.09
2022-12-17T10:26:23.815Z,10.09
2022-12-17T10:27:23.738Z,9.99
2022-12-17T10:28:23.755Z,9.89
2022-12-17T10:29:23.670Z,9.83
2022-12-17T10:30:23.600Z,10.25
2022-12-17T10:31:23.682Z,10.81
2022-12-17T10:32:23.539Z,11.25
2022-12-17T10:33:23.490Z,11.55
2022-12-17T10:34:23.447Z,11.86
2022-12-17T10:35:23.406Z,12.07
2022-12-17T10:36:23.385Z,12.25
2022-12-17T10:37:23.457Z,12.80
2022-12-17T10:38:23.263Z,13.00
2022-12-17T10:39:23.211Z,13.22
2022-12-17T10:40:23.172Z,13.33
2022-12-17T10:41:23.123Z,13.22
2022-12-17T10:42:23.130Z,13.25
2022-12-17T10:43:23.047Z,13.42
2022-12-17T10:44:23.005Z,13.19
2022-12-17T10:45:23.044Z,12.93
2022-12-17T10:46:22.997Z,12.60
2022-12-17T10:47:22.936Z,12.64
2022-12-17T10:48:22.812Z,12.49
2022-12-17T10:49:22.773Z,12.24
2022-12-17T10:50:22.761Z,12.02
2022-12-17T10:51:22.673Z,11.80
2022-12-17T10:52:22.585Z,11.73
2022-12-17T10:53:22.596Z,11.57
2022-12-17T10:54:22.536Z,11.44
2022-12-17T10:55:22.497Z,11.26
2022-12-17T10:56:22.431Z,11.15
2022-12-17T10:57:22.357Z,11.37
2022-12-17T10:58:22.400Z,11.40
2022-12-17T10:59:22.307Z,11.70
2022-12-17T11:00:22.275Z,11.83
2022-12-17T11:01:22.353Z,11.77
2022-12-17T11:02:22.399Z,11.90
2022-12-17T11:03:22.189Z,12.09
2022-12-17T11:04:22.152Z,12.49
2022-12-17T11:05:22.059Z,12.70
2022-12-17T11:06:22.025Z,12.87
2022-12-17T11:07:21.952Z,12.83
2022-12-17T11:08:21.900Z,12.64
2022-12-17T11:09:21.893Z,12.10
2022-12-17T11:10:21.807Z,11.78
2022-12-17T11:11:21.775Z,11.80
2022-12-17T11:12:24.633Z,11.88
2022-12-17T11:13:21.742Z,12.24
2022-12-17T11:14:21.604Z,12.50
2022-12-17T11:15:21.522Z,12.60
2022-12-17T11:16:21.579Z,12.65
2022-12-17T11:17:21.471Z,12.62
2022-12-17T11:18:21.374Z,12.39
2022-12-17T11:19:21.389Z,12.32
2022-12-17T11:20:21.320Z,12.37
2022-12-17T11:21:21.231Z,12.27
2022-12-17T11:22:21.217Z,12.18
2022-12-17T11:23:21.184Z,12.27
2022-12-17T11:24:22.925Z,12.40
2022-12-17T11:25:21.098Z,12.62
2022-12-17T11:26:21.050Z,12.83
2022-12-17T11:27:20.993Z,13.13
2022-12-17T11:28:20.942Z,13.33
2022-12-17T11:29:20.882Z,13.35
2022-12-17T11:30:21.012Z,13.54
2022-12-17T11:31:20.876Z,13.71
2022-12-17T11:32:20.736Z,13.68
2022-12-17T11:33:20.652Z,13.54
2022-12-17T11:34:20.611Z,13.78
2022-12-17T11:35:20.558Z,13.83
2022-12-17T11:36:25.831Z,13.57
2022-12-17T11:37:20.468Z,13.37
2022-12-17T11:38:20.417Z,13.44
2022-12-17T11:39:20.392Z,13.57
2022-12-17T11:40:20.325Z,13.53
2022-12-17T11:41:20.285Z,13.68
2022-12-17T11:42:20.215Z,13.37
2022-12-17T11:43:20.160Z,13.09
2022-12-17T11:44:20.128Z,12.93
2022-12-17T11:45:20.084Z,12.64
2022-12-17T11:46:20.134Z,12.57
2022-12-17T11:47:19.997Z,12.54
2022-12-17T11:48:19.922Z,12.61
2022-12-17T11:49:19.853Z,12.40
2022-12-17T11:50:19.822Z,12.21
2022-12-17T11:51:19.776Z,12.07
2022-12-17T11:52:19.693Z,11.99
2022-12-17T11:53:26.008Z,11.87
2022-12-17T11:54:19.612Z,11.68
2022-12-17T11:55:19.556Z,11.62
2022-12-17T11:56:19.527Z,11.51
2022-12-17T11:57:19.460Z,11.32
2022-12-17T11:58:19.378Z,11.22
2022-12-17T11:59:19.332Z,10.94
2022-12-17T12:00:19.267Z,10.60
2022-12-17T12:01:19.358Z,10.46
2022-12-17T12:02:19.183Z,10.25
2022-12-17T12:03:19.240Z,9.86
2022-12-17T12:04:19.116Z,9.65
2022-12-17T12:05:19.053Z,9.36
2022-12-17T12:06:18.958Z,9.26
2022-12-17T12:07:18.928Z,9.06
2022-12-17T12:08:18.882Z,8.79
2022-12-17T12:09:18.837Z,8.66
2022-12-17T12:10:18.748Z,8.37
2022-12-17T12:11:18.742Z,8.28
2022-12-17T12:12:18.661Z,8.12
2022-12-17T12:13:18.629Z,7.90
2022-12-17T12:14:18.576Z,7.57
2022-12-17T12:15:18.493Z,7.36
2022-12-17T12:16:18.475Z,7.24
2022-12-17T12:17:18.383Z,6.92
2022-12-17T12:18:18.364Z,6.78
2022-12-17T12:19:18.304Z,6.59
2022-12-17T12:20:18.228Z,6.33
2022-12-17T12:21:18.170Z,6.16
2022-12-17T12:22:18.101Z,5.86
2022-12-17T12:23:18.039Z,5.84
2022-12-17T12:24:18.012Z,5.62
2022-12-17T12:25:17.982Z,5.44
2022-12-17T12:26:17.902Z,5.29
2022-12-17T12:27:17.824Z,5.08
2022-12-17T12:28:17.777Z,4.99
2022-12-17T12:29:17.754Z,4.99
2022-12-17T12:30:17.721Z,4.78
2022-12-17T12:31:17.663Z,4.71
2022-12-17T12:32:17.587Z,4.62
2022-12-17T12:33:17.536Z,4.42
2022-12-17T12:34:17.472Z,4.28
2022-12-17T12:35:17.449Z,4.35
2022-12-17T12:36:17.335Z,4.24
2022-12-17T12:37:17.323Z,4.12
2022-12-17T12:38:17.280Z,4.17
2022-12-17T12:39:17.212Z,4.16
2022-12-17T12:40:17.135Z,4.22
2022-12-17T12:41:17.097Z,4.17
2022-12-17T12:42:17.026Z,4.20
2022-12-17T12:43:17.006Z,4.26
2022-12-17T12:44:16.988Z,4.23
2022-12-17T12:45:16.897Z,4.17
2022-12-17T12:46:16.901Z,4.32
2022-12-17T12:47:16.775Z,4.28
2022-12-17T12:48:16.736Z,4.41
2022-12-17T12:49:16.644Z,4.34
2022-12-17T12:50:16.751Z,4.35
2022-12-17T12:51:16.556Z,4.35
2022-12-17T12:52:16.550Z,4.35
2022-12-17T12:53:16.474Z,4.42
2022-12-17T12:54:16.509Z,4.40
2022-12-17T12:55:16.303Z,4.40
2022-12-17T12:56:16.268Z,4.40